sensor_id;sensor_type;location;lat;lon;timestamp;pressure;altitude;pressure_sealevel;temperature;humidity
77739;BME280;66904;59.926;30.404;2023-04-01T00:03:02;100422.22;;;25.12;26.05
77739;BME280;66904;59.926;30.404;2023-04-01T00:08:09;100424.72;;;25.14;25.88
77739;BME280;66904;59.926;30.404;2023-04-01T00:13:21;100430.34;;;25.12;25.60
77739;BME280;66904;59.926;30.404;2023-04-01T00:18:25;100423.06;;;25.13;25.75
77739;BME280;66904;59.926;30.404;2023-04-01T00:23:26;100415.75;;;25.13;25.62
77739;BME280;66904;59.926;30.404;2023-04-01T00:28:27;100414.94;;;25.13;25.80
77739;BME280;66904;59.926;30.404;2023-04-01T00:33:28;100419.50;;;25.12;25.77
77739;BME280;66904;59.926;30.404;2023-04-01T00:38:28;100414.09;;;25.12;25.63
77739;BME280;66904;59.926;30.404;2023-04-01T00:43:29;100415.75;;;25.13;25.57
77739;BME280;66904;59.926;30.404;2023-04-01T00:53:45;100420.16;;;25.14;25.33
77739;BME280;66904;59.926;30.404;2023-04-01T00:58:50;100419.31;;;25.14;25.46
77739;BME280;66904;59.926;30.404;2023-04-01T01:03:52;100410.34;;;25.13;25.42
77739;BME280;66904;59.926;30.404;2023-04-01T01:14:37;100407.00;;;25.18;25.28
77739;BME280;66904;59.926;30.404;2023-04-01T01:35:53;100404.09;;;25.13;25.30
77739;BME280;66904;59.926;30.404;2023-04-01T01:40:55;100409.75;;;25.11;25.40
77739;BME280;66904;59.926;30.404;2023-04-01T01:46:00;100409.75;;;25.11;25.16
77739;BME280;66904;59.926;30.404;2023-04-01T01:51:06;100408.69;;;25.12;25.14
77739;BME280;66904;59.926;30.404;2023-04-01T01:56:28;100411.78;;;25.16;25.14
77739;BME280;66904;59.926;30.404;2023-04-01T02:01:31;100407.03;;;25.11;25.14
77739;BME280;66904;59.926;30.404;2023-04-01T02:06:37;100403.50;;;25.11;25.10
77739;BME280;66904;59.926;30.404;2023-04-01T02:11:52;100405.78;;;25.14;25.14
77739;BME280;66904;59.926;30.404;2023-04-01T02:17:02;100404.94;;;25.13;24.98
77739;BME280;66904;59.926;30.404;2023-04-01T02:22:06;100404.09;;;25.13;25.21
77739;BME280;66904;59.926;30.404;2023-04-01T02:27:10;100413.91;;;25.14;24.98
77739;BME280;66904;59.926;30.404;2023-04-01T02:32:12;100409.50;;;25.13;24.88
77739;BME280;66904;59.926;30.404;2023-04-01T02:37:14;100407.47;;;25.08;24.96
77739;BME280;66904;59.926;30.404;2023-04-01T02:42:15;100407.88;;;25.12;24.77
77739;BME280;66904;59.926;30.404;2023-04-01T02:47:16;100410.34;;;25.13;24.96
77739;BME280;66904;59.926;30.404;2023-04-01T02:52:16;100416.81;;;25.12;25.20
77739;BME280;66904;59.926;30.404;2023-04-01T02:57:17;100411.63;;;25.11;24.88
77739;BME280;66904;59.926;30.404;2023-04-01T03:02:17;100409.75;;;25.11;25.15
77739;BME280;66904;59.926;30.404;2023-04-01T03:07:18;100407.03;;;25.11;24.95
77739;BME280;66904;59.926;30.404;2023-04-01T03:12:18;100414.09;;;25.12;24.77
77739;BME280;66904;59.926;30.404;2023-04-01T03:17:19;100415.75;;;25.13;24.83
77739;BME280;66904;59.926;30.404;2023-04-01T03:22:19;100416.81;;;25.12;24.83
77739;BME280;66904;59.926;30.404;2023-04-01T03:27:21;100422.44;;;25.11;24.91
77739;BME280;66904;59.926;30.404;2023-04-01T03:32:21;100425.16;;;25.11;24.95
77739;BME280;66904;59.926;30.404;2023-04-01T03:37:23;100421.84;;;25.09;24.61
77739;BME280;66904;59.926;30.404;2023-04-01T03:42:23;100428.69;;;25.11;24.78
77739;BME280;66904;59.926;30.404;2023-04-01T03:47:24;100432.25;;;25.12;24.80
77739;BME280;66904;59.926;30.404;2023-04-01T03:52:24;100431.00;;;25.08;24.74
77739;BME280;66904;59.926;30.404;2023-04-01T03:57:53;100438.88;;;25.16;24.59
77739;BME280;66904;59.926;30.404;2023-04-01T04:03:27;100441.56;;;25.16;24.45
77739;BME280;66904;59.926;30.404;2023-04-01T04:19:48;100445.97;;;25.10;24.60
77739;BME280;66904;59.926;30.404;2023-04-01T04:24:49;100443.50;;;25.09;24.84
77739;BME280;66904;59.926;30.404;2023-04-01T04:29:50;100442.03;;;25.06;24.48
77739;BME280;66904;59.926;30.404;2023-04-01T04:34:50;100442.47;;;25.03;24.74
77739;BME280;66904;59.926;30.404;2023-04-01T04:39:51;100441.03;;;25.01;24.40
77739;BME280;66904;59.926;30.404;2023-04-01T04:45:11;100446.22;;;25.02;24.41
77739;BME280;66904;59.926;30.404;2023-04-01T04:50:14;100442.50;;;24.90;24.51
77739;BME280;66904;59.926;30.404;2023-04-01T04:55:15;100450.44;;;24.92;24.51
77739;BME280;66904;59.926;30.404;2023-04-01T05:00:15;100453.56;;;24.89;24.54
77739;BME280;66904;59.926;30.404;2023-04-01T05:05:16;100457.31;;;24.88;24.52
77739;BME280;66904;59.926;30.404;2023-04-01T05:10:17;100451.69;;;24.83;24.38
77739;BME280;66904;59.926;30.404;2023-04-01T05:15:18;100455.03;;;24.85;24.28
77739;BME280;66904;59.926;30.404;2023-04-01T05:20:18;100460.66;;;24.83;24.40
77739;BME280;66904;59.926;30.404;2023-04-01T05:25:19;100453.59;;;24.82;24.45
77739;BME280;66904;59.926;30.404;2023-04-01T05:30:20;100462.91;;;24.86;24.61
77739;BME280;66904;59.926;30.404;2023-04-01T05:35:21;100457.06;;;24.89;25.02
77739;BME280;66904;59.926;30.404;2023-04-01T05:40:21;100464.16;;;24.97;25.09
77739;BME280;66904;59.926;30.404;2023-04-01T05:45:22;100470.56;;;25.09;25.23
77739;BME280;66904;59.926;30.404;2023-04-01T05:50:23;100465.78;;;25.11;24.92
77739;BME280;66904;59.926;30.404;2023-04-01T05:55:23;100464.75;;;25.05;24.79
77739;BME280;66904;59.926;30.404;2023-04-01T06:00:24;100480.78;;;25.00;24.75
77739;BME280;66904;59.926;30.404;2023-04-01T06:05:28;100474.56;;;24.93;24.78
77739;BME280;66904;59.926;30.404;2023-04-01T06:15:56;100464.59;;;24.81;24.32
77739;BME280;66904;59.926;30.404;2023-04-01T06:21:10;100486.88;;;24.83;24.65
77739;BME280;66904;59.926;30.404;2023-04-01T06:37:01;100483.34;;;24.82;24.23
77739;BME280;66904;59.926;30.404;2023-04-01T06:58:23;100492.69;;;24.80;24.69
77739;BME280;66904;59.926;30.404;2023-04-01T07:03:44;100489.34;;;24.78;24.50
77739;BME280;66904;59.926;30.404;2023-04-01T07:08:49;100502.47;;;24.87;24.55
77739;BME280;66904;59.926;30.404;2023-04-01T07:13:55;100508.72;;;24.81;24.67
77739;BME280;66904;59.926;30.404;2023-04-01T07:24:22;100510.84;;;24.86;24.82
77739;BME280;66904;59.926;30.404;2023-04-01T07:29:26;100516.63;;;24.89;24.57
77739;BME280;66904;59.926;30.404;2023-04-01T07:34:28;100521.63;;;24.92;24.40
77739;BME280;66904;59.926;30.404;2023-04-01T07:39:41;100539.09;;;24.96;24.51
77739;BME280;66904;59.926;30.404;2023-04-01T07:50:22;100536.59;;;25.08;24.82
77739;BME280;66904;59.926;30.404;2023-04-01T07:56:05;100544.47;;;25.09;24.85
77739;BME280;66904;59.926;30.404;2023-04-01T08:06:35;100546.38;;;25.15;24.86
77739;BME280;66904;59.926;30.404;2023-04-01T08:17:07;100554.69;;;25.14;24.75
77739;BME280;66904;59.926;30.404;2023-04-01T08:22:20;100559.50;;;25.12;24.73
77739;BME280;66904;59.926;30.404;2023-04-01T08:27:44;100565.94;;;25.11;24.61
77739;BME280;66904;59.926;30.404;2023-04-01T08:32:56;100557.81;;;25.11;24.94
77739;BME280;66904;59.926;30.404;2023-04-01T08:38:06;100568.03;;;25.09;25.85
77739;BME280;66904;59.926;30.404;2023-04-01T08:43:20;100571.97;;;25.06;25.83
77739;BME280;66904;59.926;30.404;2023-04-01T08:48:42;100574.25;;;25.09;25.52
77739;BME280;66904;59.926;30.404;2023-04-01T08:54:08;100571.75;;;25.14;25.52
77739;BME280;66904;59.926;30.404;2023-04-01T09:20:49;100598.44;;;25.11;24.70
77739;BME280;66904;59.926;30.404;2023-04-01T09:26:37;100601.13;;;25.11;24.70
77739;BME280;66904;59.926;30.404;2023-04-01T09:37:39;100605.09;;;25.08;24.65
77739;BME280;66904;59.926;30.404;2023-04-01T09:43:02;100601.75;;;25.06;24.56
77739;BME280;66904;59.926;30.404;2023-04-01T10:51:18;100647.97;;;25.25;25.00
77739;BME280;66904;59.926;30.404;2023-04-01T11:17:59;100651.53;;;25.18;25.18
77739;BME280;66904;59.926;30.404;2023-04-01T11:28:43;100667.56;;;25.20;25.54
77739;BME280;66904;59.926;30.404;2023-04-01T11:39:27;100667.78;;;25.12;25.35
77739;BME280;66904;59.926;30.404;2023-04-01T11:44:34;100682.97;;;25.13;24.89
77739;BME280;66904;59.926;30.404;2023-04-01T12:06:16;100684.66;;;25.14;24.87
77739;BME280;66904;59.926;30.404;2023-04-01T12:16:36;100700.88;;;25.14;24.54
77739;BME280;66904;59.926;30.404;2023-04-01T12:21:45;100705.03;;;25.16;24.53
77739;BME280;66904;59.926;30.404;2023-04-01T12:33:27;100713.81;;;25.18;24.27
77739;BME280;66904;59.926;30.404;2023-04-01T12:38:39;100715.03;;;25.16;24.55
77739;BME280;66904;59.926;30.404;2023-04-01T13:05:27;100745.66;;;25.16;24.03
77739;BME280;66904;59.926;30.404;2023-04-01T13:42:28;100770.69;;;25.25;23.47
77739;BME280;66904;59.926;30.404;2023-04-01T14:14:33;100784.41;;;25.43;23.70
77739;BME280;66904;59.926;30.404;2023-04-01T14:46:23;100818.16;;;25.28;23.69
77739;BME280;66904;59.926;30.404;2023-04-01T14:56:38;100831.50;;;25.29;23.49
77739;BME280;66904;59.926;30.404;2023-04-01T15:01:47;100844.41;;;25.27;23.42
77739;BME280;66904;59.926;30.404;2023-04-01T15:07:17;100839.59;;;25.23;23.30
77739;BME280;66904;59.926;30.404;2023-04-01T15:23:42;100867.31;;;25.18;23.65
77739;BME280;66904;59.926;30.404;2023-04-01T15:29:01;100884.41;;;25.18;23.57
77739;BME280;66904;59.926;30.404;2023-04-01T15:34:26;100887.94;;;25.19;24.12
77739;BME280;66904;59.926;30.404;2023-04-01T15:45:07;100901.72;;;25.31;24.04
77739;BME280;66904;59.926;30.404;2023-04-01T15:50:19;100908.41;;;25.35;23.97
77739;BME280;66904;59.926;30.404;2023-04-01T15:55:31;100917.97;;;25.37;23.94
77739;BME280;66904;59.926;30.404;2023-04-01T16:32:34;100961.94;;;25.33;23.52
77739;BME280;66904;59.926;30.404;2023-04-01T16:38:03;100956.88;;;25.16;23.40
77739;BME280;66904;59.926;30.404;2023-04-01T16:43:16;100970.38;;;25.10;22.87
77739;BME280;66904;59.926;30.404;2023-04-01T16:48:33;100975.38;;;25.06;22.68
77739;BME280;66904;59.926;30.404;2023-04-01T17:20:43;101007.63;;;25.01;23.33
77739;BME280;66904;59.926;30.404;2023-04-01T18:34:59;101065.94;;;25.38;24.31
77739;BME280;66904;59.926;30.404;2023-04-01T18:45:33;101066.91;;;25.24;23.89
77739;BME280;66904;59.926;30.404;2023-04-01T18:50:56;101067.53;;;25.26;23.88
77739;BME280;66904;59.926;30.404;2023-04-01T18:56:01;101080.22;;;25.26;24.41
77739;BME280;66904;59.926;30.404;2023-04-01T19:06:24;101082.34;;;25.30;24.60
77739;BME280;66904;59.926;30.404;2023-04-01T19:11:40;101085.47;;;25.27;24.85
77739;BME280;66904;59.926;30.404;2023-04-01T19:22:21;101084.19;;;25.23;25.17
77739;BME280;66904;59.926;30.404;2023-04-01T19:27:37;101089.81;;;25.22;24.71
77739;BME280;66904;59.926;30.404;2023-04-01T19:38:10;101113.09;;;25.16;24.77
77739;BME280;66904;59.926;30.404;2023-04-01T19:48:41;101108.47;;;25.10;24.64
77739;BME280;66904;59.926;30.404;2023-04-01T19:58:59;101127.66;;;25.08;24.52
77739;BME280;66904;59.926;30.404;2023-04-01T20:04:28;101136.41;;;25.10;25.13
77739;BME280;66904;59.926;30.404;2023-04-01T20:14:56;101149.50;;;25.07;24.85
77739;BME280;66904;59.926;30.404;2023-04-01T20:20:20;101153.28;;;25.12;24.89
77739;BME280;66904;59.926;30.404;2023-04-01T20:25:33;101162.22;;;25.13;25.03
77739;BME280;66904;59.926;30.404;2023-04-01T20:36:20;101172.03;;;25.14;24.92
77739;BME280;66904;59.926;30.404;2023-04-01T20:41:24;101172.88;;;25.14;24.72
77739;BME280;66904;59.926;30.404;2023-04-01T20:51:46;101185.19;;;25.17;24.88
77739;BME280;66904;59.926;30.404;2023-04-01T20:57:05;101192.69;;;25.15;24.68
77739;BME280;66904;59.926;30.404;2023-04-01T21:02:23;101199.56;;;25.17;24.87
77739;BME280;66904;59.926;30.404;2023-04-01T21:07:46;101200.41;;;25.18;24.31
77739;BME280;66904;59.926;30.404;2023-04-01T21:40:46;101229.34;;;25.17;24.17
77739;BME280;66904;59.926;30.404;2023-04-01T21:51:34;101224.34;;;25.14;24.35
77739;BME280;66904;59.926;30.404;2023-04-01T22:07:23;101247.41;;;25.10;24.33
77739;BME280;66904;59.926;30.404;2023-04-01T22:12:40;101248.72;;;25.14;23.98
77739;BME280;66904;59.926;30.404;2023-04-01T22:28:28;101274.31;;;25.12;24.36
77739;BME280;66904;59.926;30.404;2023-04-01T22:34:16;101272.22;;;25.14;24.07
77739;BME280;66904;59.926;30.404;2023-04-01T22:39:37;101279.72;;;25.12;23.84
77739;BME280;66904;59.926;30.404;2023-04-01T22:50:12;101286.34;;;25.09;23.98
77739;BME280;66904;59.926;30.404;2023-04-01T22:55:22;101282.00;;;25.08;23.89
77739;BME280;66904;59.926;30.404;2023-04-01T23:00:33;101273.19;;;25.06;23.99
77739;BME280;66904;59.926;30.404;2023-04-01T23:05:37;101290.94;;;25.09;24.42
77739;BME280;66904;59.926;30.404;2023-04-01T23:10:41;101291.75;;;25.09;24.07
77739;BME280;66904;59.926;30.404;2023-04-01T23:15:43;101295.53;;;25.08;24.25
77739;BME280;66904;59.926;30.404;2023-04-01T23:32:32;101306.16;;;25.10;24.18
77739;BME280;66904;59.926;30.404;2023-04-01T23:37:55;101309.50;;;25.12;24.04
77739;BME280;66904;59.926;30.404;2023-04-01T23:43:39;101316.59;;;25.13;23.93
